Time;durP1;ratioP1;P1;durP2;ratioP2;P2;SDS_P1;SDS_P2;PMS_P1;PMS_P2;Temp;Humidity;BMP_temperature;BMP_pressure;BME280_temperature;BME280_humidity;BME280_pressure;Samples;Min_cycle;Max_cycle;Signal;HPM_P1;HPM_P2
2023/08/19 00:02:31;;;;;;;9.20;7.10;;;;;;;20.38;93.30;100937.83;105160;1256;97785;-78
2023/08/19 00:05:18;;;;;;;11.00;6.80;;;;;;;20.38;93.37;100941.73;105215;1257;100117;-77
2023/08/19 00:08:04;;;;;;;9.90;7.80;;;;;;;20.36;93.49;100943.54;105337;1259;99315;-77
2023/08/19 00:10:49;;;;;;;9.50;7.20;;;;;;;20.34;93.50;100949.32;105163;1259;99018;-75
2023/08/19 00:13:35;;;;;;;8.30;7.50;;;;;;;20.30;93.22;100952.36;105195;1256;97149;-77
2023/08/19 00:16:20;;;;;;;7.30;6.10;;;;;;;20.25;93.59;100954.97;105192;1257;96536;-77
2023/08/19 00:19:06;;;;;;;7.30;6.00;;;;;;;20.22;93.83;100950.01;105220;1257;100569;-77
2023/08/19 00:21:51;;;;;;;7.10;6.40;;;;;;;20.19;93.86;100946.34;105320;1259;99817;-77
2023/08/19 00:24:36;;;;;;;7.40;6.60;;;;;;;20.19;94.11;100941.65;107681;1256;97727;-77
2023/08/19 00:27:22;;;;;;;11.00;6.30;;;;;;;20.18;94.18;100938.52;105232;1256;97919;-76
2023/08/19 00:30:08;;;;;;;7.10;5.90;;;;;;;20.16;93.76;100932.79;105265;1261;96617;-77
2023/08/19 00:32:54;;;;;;;7.00;6.00;;;;;;;20.15;93.76;100929.98;105266;1259;99993;-77
2023/08/19 00:35:42;;;;;;;7.40;5.90;;;;;;;20.13;93.87;100929.60;105090;1260;99090;-75
2023/08/19 00:38:27;;;;;;;6.00;5.30;;;;;;;20.10;93.86;100929.11;105274;1259;97648;-77
2023/08/19 00:41:13;;;;;;;7.00;5.60;;;;;;;20.08;94.25;100932.48;105149;1258;96575;-78
2023/08/19 00:43:58;;;;;;;7.80;7.10;;;;;;;20.06;94.58;100933.76;105128;1260;97141;-78
2023/08/19 00:46:44;;;;;;;7.60;6.60;;;;;;;20.05;94.68;100929.73;105305;1260;100069;-78
2023/08/19 00:49:30;;;;;;;7.70;7.00;;;;;;;20.04;94.56;100923.34;105063;1255;99108;-78
2023/08/19 00:52:18;;;;;;;13.80;6.90;;;;;;;20.04;94.91;100926.11;105210;1259;97995;-78
2023/08/19 00:55:05;;;;;;;7.50;6.80;;;;;;;20.01;94.78;100923.43;105089;1260;96651;-78
2023/08/19 00:57:52;;;;;;;9.00;8.10;;;;;;;20.00;94.67;100921.30;105308;1257;97087;-77
2023/08/19 01:00:38;;;;;;;29.90;20.60;;;;;;;19.98;94.82;100923.00;105231;1259;100012;-76
2023/08/19 01:03:23;;;;;;;70.10;45.50;;;;;;;19.97;94.84;100925.48;105251;1259;99063;-76
2023/08/19 01:06:28;;;;;;;62.30;40.70;;;;;;;19.96;94.71;100928.02;105240;1255;98542;-76
2023/08/19 01:09:58;;;;;;;29.20;21.00;;;;;;;19.95;95.11;100929.30;105136;1260;96628;-77
2023/08/19 01:13:09;;;;;;;23.20;17.90;;;;;;;19.91;95.09;100929.55;105208;1259;96883;-75
2023/08/19 01:16:17;;;;;;;26.30;18.80;;;;;;;19.89;94.68;100926.65;105326;1263;99965;-77
2023/08/19 01:19:06;;;;;;;15.50;13.90;;;;;;;19.84;94.51;100920.14;105164;1256;107875;-77
2023/08/19 01:21:56;;;;;;;21.10;13.70;;;;;;;19.83;94.76;100917.57;105128;1260;97800;-77
2023/08/19 01:24:43;;;;;;;13.60;11.70;;;;;;;19.83;94.91;100921.71;105259;1260;96588;-77
2023/08/19 01:27:28;;;;;;;9.10;8.10;;;;;;;19.83;95.18;100924.69;105225;1259;97305;-76
2023/08/19 01:30:17;;;;;;;8.80;6.80;;;;;;;19.80;94.94;100926.91;105249;1256;101427;-76
2023/08/19 01:33:03;;;;;;;8.90;5.70;;;;;;;19.77;94.98;100930.75;105227;1259;100339;-76
2023/08/19 01:36:06;;;;;;;9.40;5.60;;;;;;;19.73;94.94;100934.80;105180;1259;98994;-77
2023/08/19 01:38:59;;;;;;;6.70;5.20;;;;;;;19.65;94.86;100935.66;105201;1256;97050;-78
2023/08/19 01:41:45;;;;;;;4.60;4.20;;;;;;;19.58;95.09;100934.67;105460;1257;97113;-76
2023/08/19 01:44:32;;;;;;;7.90;4.30;;;;;;;19.50;95.03;100930.42;105194;1260;100900;-78
2023/08/19 01:47:17;;;;;;;5.20;4.50;;;;;;;19.45;95.35;100931.39;105188;1256;99062;-76
2023/08/19 01:50:06;;;;;;;4.80;4.40;;;;;;;19.43;95.33;100927.92;105153;1257;106510;-77
2023/08/19 01:52:51;;;;;;;7.10;6.00;;;;;;;19.43;95.65;100923.98;105176;1257;97963;-75
2023/08/19 01:55:37;;;;;;;5.70;5.20;;;;;;;19.43;95.95;100922.20;105203;1255;98286;-76
2023/08/19 01:58:22;;;;;;;8.60;5.80;;;;;;;19.42;95.94;100917.89;105262;1260;100693;-77
2023/08/19 02:01:12;;;;;;;7.80;6.70;;;;;;;19.44;96.11;100916.79;105240;1259;100349;-77
2023/08/19 02:03:58;;;;;;;7.40;6.70;;;;;;;19.45;96.34;100918.07;105188;1261;97830;-77
2023/08/19 02:06:43;;;;;;;7.20;6.50;;;;;;;19.44;96.55;100918.54;105255;1256;96605;-78
2023/08/19 02:09:29;;;;;;;7.10;6.50;;;;;;;19.41;96.67;100916.01;105243;1259;96584;-77
2023/08/19 02:12:14;;;;;;;6.90;6.30;;;;;;;19.39;96.51;100913.73;105295;1261;99986;-77
2023/08/19 02:15:00;;;;;;;8.90;7.10;;;;;;;19.38;96.63;100907.15;105180;1261;99089;-76
2023/08/19 02:17:46;;;;;;;12.10;9.40;;;;;;;19.38;97.05;100904.39;105136;1262;99111;-78
2023/08/19 02:20:31;;;;;;;11.60;8.60;;;;;;;19.39;97.42;100903.63;105241;1257;96607;-77
2023/08/19 02:23:17;;;;;;;9.40;7.70;;;;;;;19.39;97.63;100906.26;105331;1256;97129;-77
2023/08/19 02:26:03;;;;;;;10.30;9.20;;;;;;;19.40;97.66;100908.66;105137;1256;101338;-78
2023/08/19 02:28:48;;;;;;;12.10;10.10;;;;;;;19.41;97.89;100906.94;105243;1260;99119;-78
2023/08/19 02:31:36;;;;;;;10.90;9.80;;;;;;;19.41;98.38;100904.55;105269;1256;97746;-77
2023/08/19 02:34:22;;;;;;;15.80;11.20;;;;;;;19.41;98.55;100910.74;105230;1261;96667;-77
2023/08/19 02:37:09;;;;;;;12.70;11.40;;;;;;;19.41;99.03;100913.70;105166;1257;97134;-77
2023/08/19 02:39:54;;;;;;;11.60;10.40;;;;;;;19.40;99.17;100913.30;105304;1259;101233;-77
2023/08/19 02:42:40;;;;;;;10.10;9.00;;;;;;;19.39;99.21;100910.77;105101;1259;99731;-77
2023/08/19 02:45:27;;;;;;;11.70;7.90;;;;;;;19.38;98.65;100908.73;105114;1260;98596;-77
2023/08/19 02:48:12;;;;;;;9.30;8.10;;;;;;;19.36;98.15;100905.10;105249;1259;96598;-77
2023/08/19 02:51:01;;;;;;;9.80;7.40;;;;;;;19.35;98.28;100910.55;105269;1256;97126;-76
2023/08/19 02:53:46;;;;;;;11.10;9.90;;;;;;;19.36;98.39;100907.69;105210;1256;100126;-76
2023/08/19 02:56:32;;;;;;;12.80;9.70;;;;;;;19.38;98.59;100910.50;105256;1259;108937;-77
2023/08/19 02:59:17;;;;;;;11.00;9.00;;;;;;;19.38;98.35;100910.73;105245;1259;98898;-78
2023/08/19 03:02:03;;;;;;;15.60;9.90;;;;;;;19.37;98.28;100912.60;105239;1261;96635;-78
2023/08/19 03:04:49;;;;;;;11.40;9.30;;;;;;;19.35;98.20;100918.81;105210;1259;97116;-78
2023/08/19 03:07:34;;;;;;;12.10;9.20;;;;;;;19.33;97.94;100923.48;105207;1257;99979;-78
2023/08/19 03:10:19;;;;;;;11.60;8.40;;;;;;;19.32;97.97;100922.83;105248;1256;100863;-77
2023/08/19 03:13:06;;;;;;;10.00;9.10;;;;;;;19.31;98.12;100921.81;105166;1259;98812;-77
2023/08/19 03:15:52;;;;;;;9.60;8.70;;;;;;;19.29;98.28;100918.80;105264;1259;97250;-77
2023/08/19 03:18:38;;;;;;;10.40;9.40;;;;;;;19.29;98.09;100917.86;105240;1256;96606;-77
2023/08/19 03:21:23;;;;;;;10.60;9.70;;;;;;;19.26;98.27;100914.94;105215;1258;100093;-76
2023/08/19 03:24:09;;;;;;;9.70;8.30;;;;;;;19.19;98.17;100916.08;105380;1256;99055;-76
2023/08/19 03:26:55;;;;;;;9.00;8.20;;;;;;;19.13;98.05;100914.29;105211;1255;98918;-77
2023/08/19 03:29:41;;;;;;;8.30;7.60;;;;;;;19.09;98.04;100918.91;105168;1260;97401;-78
2023/08/19 03:32:27;;;;;;;11.10;7.90;;;;;;;19.06;98.07;100925.05;105221;1260;97027;-77
2023/08/19 03:35:13;;;;;;;10.30;8.20;;;;;;;19.05;98.32;100923.77;105305;1259;99958;-77
2023/08/19 03:37:58;;;;;;;8.50;7.60;;;;;;;19.03;98.38;100925.83;105237;1259;99074;-77
2023/08/19 03:40:45;;;;;;;9.80;7.80;;;;;;;19.00;98.18;100928.00;105189;1259;98344;-77
2023/08/19 03:43:30;;;;;;;10.40;7.70;;;;;;;19.01;98.17;100931.38;105227;1257;96603;-77
2023/08/19 03:46:16;;;;;;;9.80;7.40;;;;;;;19.00;98.02;100933.42;105294;1255;96615;-78
2023/08/19 03:49:02;;;;;;;6.80;6.20;;;;;;;18.99;97.96;100932.45;105277;1258;100011;-77
2023/08/19 03:51:48;;;;;;;9.70;8.00;;;;;;;18.96;97.81;100930.81;105154;1260;109095;-76
2023/08/19 03:54:34;;;;;;;10.40;9.40;;;;;;;18.95;97.99;100930.13;105223;1256;97692;-76
2023/08/19 03:57:20;;;;;;;8.70;7.80;;;;;;;18.95;98.21;100931.30;105096;1260;97630;-76
2023/08/19 04:00:06;;;;;;;8.60;7.80;;;;;;;18.95;98.08;100938.28;105168;1257;97094;-77
2023/08/19 04:02:59;;;;;;;12.10;9.40;;;;;;;18.93;98.30;100938.94;105135;1259;99984;-77
2023/08/19 04:05:45;;;;;;;12.60;11.40;;;;;;;18.93;98.91;100939.27;105243;1259;99095;-76
2023/08/19 04:08:31;;;;;;;16.30;12.40;;;;;;;18.92;99.80;100940.16;105288;1256;97781;-77
2023/08/19 04:11:16;;;;;;;14.00;11.70;;;;;;;18.93;100.00;100939.73;105194;1261;96614;-78
2023/08/19 04:14:02;;;;;;;11.10;10.10;;;;;;;18.90;100.00;100938.10;105248;1259;97893;-77
2023/08/19 04:16:48;;;;;;;13.40;12.00;;;;;;;18.88;100.00;100934.34;105260;1257;100710;-75
2023/08/19 04:19:35;;;;;;;14.10;11.90;;;;;;;18.89;100.00;100938.87;105128;1255;99066;-76
2023/08/19 04:22:20;;;;;;;14.50;13.00;;;;;;;18.91;100.00;100936.46;105673;1255;97697;-76
2023/08/19 04:25:06;;;;;;;16.40;14.70;;;;;;;18.94;100.00;100932.78;106022;1260;96627;-76
2023/08/19 04:27:51;;;;;;;15.60;14.10;;;;;;;18.98;100.00;100935.98;105227;1259;97075;-76
2023/08/19 04:30:38;;;;;;;15.40;13.90;;;;;;;19.02;100.00;100936.02;105709;1256;100061;-81
2023/08/19 04:33:24;;;;;;;16.50;14.60;;;;;;;19.07;100.00;100931.38;106291;1256;99149;-81
2023/08/19 04:36:09;;;;;;;17.30;15.40;;;;;;;19.13;100.00;100931.50;106204;1256;97840;-83
2023/08/19 04:38:55;;;;;;;18.50;16.50;;;;;;;19.18;100.00;100931.48;106212;1256;96686;-80
2023/08/19 04:41:40;;;;;;;17.20;15.60;;;;;;;19.25;100.00;100928.70;106095;1259;96697;-80
2023/08/19 04:44:26;;;;;;;19.40;16.00;;;;;;;19.31;100.00;100927.64;106344;1256;99996;-81
2023/08/19 04:47:12;;;;;;;18.90;16.80;;;;;;;19.36;100.00;100930.47;106262;1256;99844;-80
2023/08/19 04:49:59;;;;;;;18.10;16.20;;;;;;;19.41;100.00;100931.89;106286;1257;99046;-82
2023/08/19 04:52:45;;;;;;;17.50;15.80;;;;;;;19.46;100.00;100937.98;106259;1256;96616;-82
2023/08/19 04:55:30;;;;;;;19.50;16.50;;;;;;;19.51;100.00;100939.02;106230;1258;97049;-83
2023/08/19 04:58:15;;;;;;;18.60;16.70;;;;;;;19.56;100.00;100938.50;106289;1259;100107;-84
2023/08/19 05:01:02;;;;;;;17.50;15.60;;;;;;;19.63;100.00;100936.36;106225;1256;100762;-82
2023/08/19 05:03:49;;;;;;;17.30;15.50;;;;;;;19.67;100.00;100938.20;108486;1255;97690;-83
2023/08/19 05:06:35;;;;;;;20.70;15.30;;;;;;;19.72;100.00;100939.50;108428;1255;94298;-82
2023/08/19 05:09:20;;;;;;;15.90;14.50;;;;;;;19.79;100.00;100938.52;106742;1256;98388;-82
2023/08/19 05:12:06;;;;;;;18.10;15.90;;;;;;;19.90;100.00;100940.73;106383;1259;100587;-83
2023/08/19 05:14:52;;;;;;;17.70;15.80;;;;;;;20.02;100.00;100939.16;106233;1259;99995;-82
2023/08/19 05:20:13;;;;;;;21.30;16.50;;;;;;;20.24;100.00;100938.48;103352;1289;636514;-82
2023/08/19 05:22:59;;;;;;;19.10;16.40;;;;;;;20.29;100.00;100941.18;105668;1270;96010;-82
2023/08/19 05:25:44;;;;;;;18.20;16.60;;;;;;;20.36;100.00;100940.77;105368;1269;95960;-82
2023/08/19 05:28:31;;;;;;;16.10;14.30;;;;;;;20.43;100.00;100942.70;105599;1272;98366;-84
2023/08/19 05:31:17;;;;;;;18.30;16.30;;;;;;;20.52;100.00;100946.19;105259;1277;99097;-82
2023/08/19 05:34:03;;;;;;;17.60;16.00;;;;;;;20.61;100.00;100946.81;105336;1266;125850;-83
2023/08/19 05:36:48;;;;;;;17.30;15.70;;;;;;;20.69;100.00;100948.09;105587;1266;96702;-82
2023/08/19 05:39:34;;;;;;;18.20;16.30;;;;;;;20.73;100.00;100952.86;105413;1269;95915;-83
2023/08/19 05:42:19;;;;;;;17.90;16.10;;;;;;;20.78;100.00;100958.48;105565;1266;98614;-82
2023/08/19 05:45:06;;;;;;;17.40;15.60;;;;;;;20.82;100.00;100962.33;105479;1267;99094;-81
2023/08/19 05:47:51;;;;;;;17.00;14.70;;;;;;;20.86;100.00;100960.91;105451;1267;97788;-83
2023/08/19 05:50:36;;;;;;;21.60;15.80;;;;;;;20.90;100.00;100960.13;105500;1267;95890;-82
2023/08/19 05:53:22;;;;;;;17.80;16.00;;;;;;;20.96;100.00;100957.40;105494;1267;95835;-84
2023/08/19 05:56:07;;;;;;;16.50;15.00;;;;;;;21.01;100.00;100951.71;106066;1259;99440;-83
2023/08/19 05:58:53;;;;;;;16.00;14.50;;;;;;;21.07;100.00;100946.45;105742;1261;100136;-83
2023/08/19 06:01:38;;;;;;;16.20;14.70;;;;;;;21.12;100.00;100945.45;105853;1259;97795;-82
2023/08/19 06:04:25;;;;;;;16.10;14.30;;;;;;;21.19;100.00;100941.86;105946;1260;95874;-82
2023/08/19 06:07:11;;;;;;;16.90;15.30;;;;;;;21.25;100.00;100941.74;105888;1266;95897;-83
2023/08/19 06:09:56;;;;;;;15.80;14.30;;;;;;;21.29;100.00;100944.80;106034;1261;100013;-83
2023/08/19 06:12:41;;;;;;;16.80;14.70;;;;;;;21.33;100.00;100947.81;105849;1264;107832;-82
2023/08/19 06:15:27;;;;;;;15.50;13.90;;;;;;;21.37;100.00;100951.02;106101;1257;99278;-84
2023/08/19 06:18:13;;;;;;;18.70;14.50;;;;;;;21.42;100.00;100950.39;106167;1257;95976;-82
2023/08/19 06:20:59;;;;;;;16.00;14.60;;;;;;;21.47;100.00;100948.45;106156;1258;96608;-81
2023/08/19 06:23:45;;;;;;;15.40;13.80;;;;;;;21.52;100.00;100948.11;106621;1258;100008;-81
2023/08/19 06:26:32;;;;;;;17.00;13.90;;;;;;;21.57;100.00;100950.63;106360;1261;100952;-81
2023/08/19 06:29:17;;;;;;;16.10;14.50;;;;;;;21.62;100.00;100955.92;106376;1259;98310;-81
2023/08/19 06:32:03;;;;;;;16.10;14.50;;;;;;;21.66;100.00;100956.77;106222;1259;96753;-82
2023/08/19 06:34:49;;;;;;;16.60;15.00;;;;;;;21.71;100.00;100955.73;106210;1257;96568;-82
2023/08/19 06:37:41;;;;;;;16.90;15.20;;;;;;;21.75;100.00;100957.37;106302;1257;98704;-83
2023/08/19 06:40:30;;;;;;;17.70;15.60;;;;;;;21.78;100.00;100962.99;106282;1258;98871;-81
2023/08/19 06:43:18;;;;;;;16.40;14.70;;;;;;;21.81;100.00;100964.30;106362;1262;98900;-85
2023/08/19 06:46:05;;;;;;;16.50;14.90;;;;;;;21.89;100.00;100965.60;106237;1256;95908;-82
2023/08/19 06:48:52;;;;;;;16.30;14.70;;;;;;;22.02;100.00;100967.21;106291;1259;96322;-82
2023/08/19 06:51:38;;;;;;;18.10;15.40;;;;;;;22.16;100.00;100967.23;106429;1253;100016;-84
2023/08/19 06:54:24;;;;;;;18.00;15.80;;;;;;;22.27;100.00;100966.61;106337;1256;99364;-83
2023/08/19 06:57:21;;;;;;;18.40;15.50;;;;;;;22.41;100.00;100967.42;106430;1255;97716;-83
2023/08/19 07:00:10;;;;;;;19.10;16.90;;;;;;;22.56;100.00;100963.83;106410;1255;95909;-83
2023/08/19 07:02:57;;;;;;;18.60;15.50;;;;;;;22.70;100.00;100965.83;106297;1254;95864;-83
2023/08/19 07:05:44;;;;;;;17.80;16.00;;;;;;;22.84;100.00;100967.16;106279;1254;99960;-83
2023/08/19 07:08:32;;;;;;;21.70;15.30;;;;;;;22.98;100.00;100968.49;106340;1258;99054;-84
2023/08/19 07:11:18;;;;;;;17.50;14.70;;;;;;;23.11;100.00;100972.00;106199;1260;99026;-83
2023/08/19 07:14:04;;;;;;;16.90;15.10;;;;;;;23.25;100.00;100970.10;106233;1257;96336;-83
2023/08/19 07:16:52;;;;;;;15.90;13.70;;;;;;;23.37;100.00;100967.98;105999;1254;95874;-84
2023/08/19 07:19:39;;;;;;;14.70;13.10;;;;;;;23.48;100.00;100966.65;106147;1259;98905;-82
2023/08/19 07:22:26;;;;;;;14.30;12.70;;;;;;;23.61;100.00;100971.33;106447;1256;99239;-83
2023/08/19 07:25:12;;;;;;;17.50;13.50;;;;;;;23.74;100.00;100974.21;106232;1260;98518;-82
2023/08/19 07:28:03;;;;;;;15.90;12.40;;;;;;;23.85;100.00;100977.77;106232;1254;95947;-84
2023/08/19 07:30:48;;;;;;;17.60;12.50;;;;;;;23.96;100.00;100982.98;106608;1254;95949;-82
2023/08/19 07:33:35;;;;;;;15.40;12.50;;;;;;;24.10;100.00;100988.39;106111;1254;99983;-83
2023/08/19 07:36:22;;;;;;;13.30;11.60;;;;;;;24.21;100.00;100990.70;106210;1254;99143;-84
2023/08/19 07:39:08;;;;;;;15.40;12.30;;;;;;;24.31;99.95;100992.27;106296;1254;97709;-83
2023/08/19 07:41:53;;;;;;;14.90;12.10;;;;;;;24.42;99.88;100992.75;106141;1254;96004;-84
2023/08/19 07:44:38;;;;;;;14.60;12.80;;;;;;;24.53;99.39;100997.02;106177;1258;95865;-83
2023/08/19 07:47:24;;;;;;;14.60;12.70;;;;;;;24.63;98.74;100996.98;106334;1258;98736;-83
2023/08/19 07:50:09;;;;;;;17.20;12.50;;;;;;;24.74;98.27;100993.40;106225;1254;100044;-84
2023/08/19 07:52:55;;;;;;;16.50;11.60;;;;;;;24.88;97.68;100988.96;106110;1255;98789;-84
2023/08/19 07:55:41;;;;;;;12.60;11.10;;;;;;;25.03;98.05;100984.82;106119;1255;95861;-83
2023/08/19 07:58:27;;;;;;;14.80;12.80;;;;;;;25.17;97.50;100986.70;106124;1254;95902;-84
2023/08/19 08:01:13;;;;;;;13.80;12.40;;;;;;;25.29;97.38;100988.56;106115;1254;99391;-84
2023/08/19 08:03:59;;;;;;;15.70;12.80;;;;;;;25.39;96.09;100991.30;106276;1254;99157;-83
2023/08/19 08:06:51;;;;;;;13.30;12.10;;;;;;;25.43;94.91;100983.75;106086;1256;97781;-84
2023/08/19 08:09:37;;;;;;;15.20;11.90;;;;;;;25.44;93.99;100981.95;106145;1262;95866;-82
2023/08/19 08:12:23;;;;;;;14.20;12.50;;;;;;;25.46;94.27;100981.73;106092;1254;95954;-84
2023/08/19 08:15:09;;;;;;;15.80;13.50;;;;;;;25.50;93.86;100981.23;106016;1255;99243;-85
2023/08/19 08:17:55;;;;;;;13.70;12.20;;;;;;;25.54;93.67;100982.33;106053;1256;99178;-84
2023/08/19 08:20:41;;;;;;;14.40;11.10;;;;;;;25.55;93.20;100980.50;106254;1257;99588;-82
2023/08/19 08:23:26;;;;;;;13.60;11.90;;;;;;;25.61;93.03;100979.79;106434;1260;95992;-82
2023/08/19 08:26:13;;;;;;;16.50;12.10;;;;;;;25.71;92.75;100981.14;106269;1254;96791;-77
2023/08/19 08:28:58;;;;;;;13.80;12.20;;;;;;;25.84;92.08;100983.59;105459;1255;98635;-78
2023/08/19 08:31:44;;;;;;;13.40;11.60;;;;;;;25.95;91.70;100981.41;105340;1254;99198;-78
2023/08/19 08:34:29;;;;;;;17.70;11.20;;;;;;;26.03;91.51;100980.02;105438;1255;98984;-77
2023/08/19 08:37:15;;;;;;;14.60;11.50;;;;;;;26.14;91.02;100980.13;105355;1258;96198;-78
2023/08/19 08:40:01;;;;;;;12.30;11.10;;;;;;;26.23;90.97;100977.23;105390;1259;95888;-78
2023/08/19 08:42:46;;;;;;;14.10;12.10;;;;;;;26.31;90.34;100978.67;105372;1255;99909;-78
2023/08/19 08:45:32;;;;;;;13.90;12.20;;;;;;;26.37;89.45;100980.85;105292;1258;100352;-77
2023/08/19 08:48:19;;;;;;;14.80;12.70;;;;;;;26.43;89.28;100983.19;105329;1269;97731;-78
2023/08/19 08:51:05;;;;;;;16.40;13.70;;;;;;;26.44;88.73;100981.20;105286;1254;95887;-77
2023/08/19 08:53:52;;;;;;;16.30;13.10;;;;;;;26.47;88.69;100976.20;105324;1255;96456;-78
2023/08/19 08:56:37;;;;;;;17.50;14.00;;;;;;;26.51;88.54;100976.71;105434;1258;98661;-78
2023/08/19 08:59:23;;;;;;;15.60;13.30;;;;;;;26.57;89.05;100973.94;105364;1258;99103;-78
2023/08/19 09:02:12;;;;;;;17.60;12.90;;;;;;;26.62;88.55;100973.90;105499;1254;97713;-77
2023/08/19 09:04:59;;;;;;;15.40;14.10;;;;;;;26.67;88.49;100976.63;105362;1258;97187;-79
2023/08/19 09:07:46;;;;;;;16.00;13.40;;;;;;;26.71;87.92;100976.14;105383;1258;95878;-79
2023/08/19 09:10:34;;;;;;;16.40;13.10;;;;;;;26.74;87.31;100972.22;105276;1257;99335;-78
2023/08/19 09:13:24;;;;;;;13.70;12.30;;;;;;;26.79;87.62;100967.73;105499;1258;99099;-78
2023/08/19 09:16:11;;;;;;;;;;;;;;;26.86;87.35;100967.02;105455;1255;99309;-77
2023/08/19 09:18:56;;;;;;;18.10;14.50;;;;;;;26.89;86.40;100967.73;105438;1254;96233;-79
2023/08/19 09:21:42;;;;;;;15.00;13.50;;;;;;;26.90;86.10;100967.33;105418;1258;97292;-78
2023/08/19 09:24:28;;;;;;;14.60;13.10;;;;;;;26.94;86.59;100967.89;107705;1255;98579;-78
2023/08/19 09:27:17;;;;;;;16.30;13.20;;;;;;;27.01;86.44;100965.66;105369;1254;99122;-77
2023/08/19 09:30:03;;;;;;;15.10;13.30;;;;;;;27.06;86.64;100967.83;105506;1260;99003;-77
2023/08/19 09:32:49;;;;;;;17.10;13.60;;;;;;;27.12;86.72;100966.29;105457;1259;95858;-77
2023/08/19 09:35:37;;;;;;;15.70;13.50;;;;;;;27.17;85.73;100965.70;105420;1254;97116;-78
2023/08/19 09:38:24;;;;;;;15.40;13.90;;;;;;;27.20;85.01;100970.77;105484;1258;98702;-77
2023/08/19 09:41:11;;;;;;;17.50;13.50;;;;;;;27.22;85.00;100967.95;105350;1258;99092;-76
2023/08/19 09:43:57;;;;;;;16.70;13.20;;;;;;;27.27;85.54;100965.66;105379;1254;97729;-77
2023/08/19 09:46:42;;;;;;;16.30;13.80;;;;;;;27.34;85.19;100969.91;106859;1255;95902;-77
2023/08/19 09:49:28;;;;;;;16.10;13.80;;;;;;;27.40;84.81;100969.32;105833;1258;95883;-77
2023/08/19 09:52:17;;;;;;;15.80;13.00;;;;;;;27.45;84.81;100965.20;105320;1259;98627;-77
2023/08/19 09:55:03;;;;;;;14.50;12.60;;;;;;;27.49;84.54;100967.69;108397;1253;99078;-78
2023/08/19 09:57:48;;;;;;;13.90;12.60;;;;;;;27.57;84.44;100969.77;105466;1254;107010;-79
2023/08/19 10:00:34;;;;;;;14.80;13.10;;;;;;;27.64;84.09;100966.40;105395;1255;96605;-78
2023/08/19 10:03:20;;;;;;;14.30;12.90;;;;;;;27.67;83.01;100967.96;105372;1253;97220;-78
2023/08/19 10:06:07;;;;;;;14.50;12.70;;;;;;;27.68;82.57;100966.35;105385;1254;101251;-77
2023/08/19 10:09:04;;;;;;;13.90;12.60;;;;;;;27.74;83.04;100968.27;105340;1258;100498;-78
2023/08/19 10:11:52;;;;;;;14.50;12.50;;;;;;;27.81;83.27;100968.30;105291;1254;98923;-77
2023/08/19 10:14:42;;;;;;;15.70;12.40;;;;;;;27.89;82.75;100964.80;105382;1258;96599;-78
2023/08/19 10:17:31;;;;;;;18.80;11.90;;;;;;;27.97;82.67;100967.42;105521;1254;97253;-79
2023/08/19 10:20:21;;;;;;;13.90;11.80;;;;;;;28.06;82.47;100967.38;108474;1253;101359;-78
2023/08/19 10:23:09;;;;;;;14.10;12.10;;;;;;;28.10;81.70;100967.28;106921;1253;99255;-78
2023/08/19 10:25:55;;;;;;;14.20;12.20;;;;;;;28.12;81.94;100966.54;108464;1255;98973;-79
2023/08/19 10:28:40;;;;;;;13.60;11.30;;;;;;;28.18;82.09;100970.05;105813;1254;96606;-78
2023/08/19 10:31:27;;;;;;;13.80;12.60;;;;;;;28.26;81.38;100972.92;105338;1260;97227;-78
2023/08/19 10:34:18;;;;;;;13.90;11.60;;;;;;;28.31;81.61;100971.48;105357;1259;100027;-77
2023/08/19 10:37:09;;;;;;;13.50;12.20;;;;;;;28.38;81.51;100970.95;105368;1253;99146;-78
2023/08/19 10:40:06;;;;;;;14.30;12.20;;;;;;;28.45;80.63;100971.58;105326;1258;97720;-78
2023/08/19 10:43:01;;;;;;;12.40;11.20;;;;;;;28.49;80.49;100972.17;105344;1258;98272;-79
2023/08/19 10:45:47;;;;;;;12.80;11.40;;;;;;;28.54;80.08;100969.96;105408;1257;98044;-79
2023/08/19 10:48:33;;;;;;;12.10;10.80;;;;;;;28.55;79.38;100971.48;105372;1255;100016;-79
2023/08/19 10:51:19;;;;;;;14.30;12.20;;;;;;;28.62;79.75;100970.81;105425;1254;99782;-79
2023/08/19 10:54:09;;;;;;;13.80;11.30;;;;;;;28.66;78.43;100965.48;105389;1260;98980;-78
2023/08/19 10:57:22;;;;;;;14.00;10.50;;;;;;;28.69;78.94;100966.15;105274;1258;97190;-78
2023/08/19 11:00:10;;;;;;;13.20;11.80;;;;;;;28.77;79.30;100962.77;105233;1255;97872;-78
2023/08/19 11:02:57;;;;;;;10.80;9.90;;;;;;;28.84;79.18;100958.59;105371;1254;101258;-77
2023/08/19 11:05:50;;;;;;;11.80;10.60;;;;;;;28.90;79.01;100958.05;105265;1254;98923;-78
2023/08/19 11:08:43;;;;;;;11.90;10.40;;;;;;;28.97;77.79;100958.77;105640;1257;98822;-77
2023/08/19 11:11:31;;;;;;;11.20;10.10;;;;;;;29.02;77.02;100952.67;105436;1258;97071;-77
2023/08/19 11:14:17;;;;;;;13.00;10.80;;;;;;;29.07;76.74;100953.64;105795;1259;96527;-79
2023/08/19 11:17:04;;;;;;;14.70;10.10;;;;;;;29.08;75.63;100948.72;105353;1258;101332;-78
2023/08/19 11:19:49;;;;;;;13.70;10.80;;;;;;;29.10;75.38;100947.59;105352;1258;99220;-79
2023/08/19 11:22:45;;;;;;;11.40;10.20;;;;;;;29.11;74.76;100947.95;105716;1254;99030;-79
2023/08/19 11:25:37;;;;;;;11.50;10.20;;;;;;;29.11;74.33;100949.43;105480;1254;97797;-79
2023/08/19 11:28:22;;;;;;;12.90;10.80;;;;;;;29.15;74.53;100948.11;105328;1254;97253;-79
2023/08/19 11:31:08;;;;;;;12.40;10.50;;;;;;;29.21;74.38;100946.98;105357;1257;100728;-79
2023/08/19 11:33:53;;;;;;;10.70;9.60;;;;;;;29.27;74.18;100946.55;105326;1254;100382;-79
2023/08/19 11:36:43;;;;;;;10.90;9.90;;;;;;;29.34;74.17;100945.88;105397;1254;97704;-79
2023/08/19 11:39:32;;;;;;;10.70;9.30;;;;;;;29.40;74.16;100948.24;105793;1258;96681;-79
2023/08/19 11:42:18;;;;;;;10.70;9.60;;;;;;;29.48;74.07;100943.30;105650;1258;97230;-79
2023/08/19 11:45:07;;;;;;;11.90;10.30;;;;;;;29.56;73.44;100938.90;105391;1254;100733;-79
2023/08/19 11:47:52;;;;;;;12.30;9.50;;;;;;;29.62;73.67;100938.77;105851;1258;99131;-78
2023/08/19 11:50:49;;;;;;;9.50;8.70;;;;;;;29.70;73.24;100941.94;105432;1254;98962;-78
2023/08/19 11:53:34;;;;;;;10.20;9.20;;;;;;;29.81;73.39;100943.31;105370;1258;97897;-79
2023/08/19 11:56:20;;;;;;;10.40;9.40;;;;;;;29.86;72.19;100938.95;105420;1258;97062;-79
2023/08/19 11:59:06;;;;;;;11.10;9.70;;;;;;;29.91;71.77;100935.79;105393;1263;101247;-78
2023/08/19 12:01:51;;;;;;;10.40;9.50;;;;;;;29.95;72.06;100937.52;105453;1258;99079;-79
2023/08/19 12:04:37;;;;;;;11.00;9.90;;;;;;;30.03;71.41;100934.20;105358;1254;98226;-79
2023/08/19 12:07:28;;;;;;;10.40;9.50;;;;;;;30.07;70.76;100929.23;105307;1258;97075;-78
2023/08/19 12:10:14;;;;;;;10.60;9.40;;;;;;;30.12;70.73;100931.02;105426;1257;97050;-79
2023/08/19 12:13:00;;;;;;;10.80;9.50;;;;;;;30.20;71.45;100933.84;105375;1254;100937;-79
2023/08/19 12:15:45;;;;;;;10.80;9.70;;;;;;;30.29;71.24;100932.93;105304;1255;100320;-79
2023/08/19 12:18:33;;;;;;;11.90;9.80;;;;;;;30.36;70.50;100928.03;105332;1257;98955;-79
2023/08/19 12:21:19;;;;;;;10.40;9.50;;;;;;;30.42;70.53;100922.44;105443;1258;96602;-79
2023/08/19 12:24:04;;;;;;;12.40;9.30;;;;;;;30.47;70.06;100922.75;105506;1254;97887;-79
2023/08/19 12:26:50;;;;;;;11.10;9.30;;;;;;;30.51;69.42;100922.02;105377;1258;101650;-79
2023/08/19 12:31:32;;;;;;;11.70;10.10;;;;;;;30.56;68.59;100922.67;102127;1292;636662;-78
2023/08/19 12:34:17;;;;;;;13.80;9.40;;;;;;;30.54;68.66;100921.06;104475;1266;97332;-79
2023/08/19 12:37:03;;;;;;;10.00;9.00;;;;;;;30.53;68.57;100920.90;104503;1271;97310;-78